Time;durP1;ratioP1;P1;durP2;ratioP2;P2;SDS_P1;SDS_P2;PMS_P1;PMS_P2;Temp;Humidity;BMP_temperature;BMP_pressure;BME280_temperature;BME280_humidity;BME280_pressure;Samples;Min_cycle;Max_cycle;Signal;HPM_P1;HPM_P2
2022/10/18 00:02:15;;;;;;;10.90;5.10;;;;;9.90;99011.60;;;;109081;1263;41146;-62
2022/10/18 00:04:46;;;;;;;12.50;4.70;;;;;9.90;99013.80;;;;108966;1267;41617;-62
2022/10/18 00:07:16;;;;;;;;;;;;;9.90;99010.20;;;;109008;1263;41582;-62
2022/10/18 00:09:46;;;;;;;11.30;5.90;;;;;9.80;99017.80;;;;109168;1264;41702;-62
2022/10/18 00:12:17;;;;;;;9.60;4.80;;;;;9.80;99012.80;;;;109013;1262;41339;-62
2022/10/18 00:14:50;;;;;;;10.00;4.70;;;;;9.70;99010.40;;;;109062;1263;41272;-62
2022/10/18 00:17:19;;;;;;;10.50;4.50;;;;;9.70;99007.80;;;;109127;1271;41225;-62
2022/10/18 00:19:51;;;;;;;12.50;5.20;;;;;9.70;99002.80;;;;109048;1271;41610;-62
2022/10/18 00:22:24;;;;;;;10.70;5.10;;;;;9.64;99003.20;;;;109014;1265;41761;-62
2022/10/18 00:24:56;;;;;;;11.60;5.00;;;;;9.60;99004.60;;;;108833;1260;41594;-62
2022/10/18 00:27:29;;;;;;;11.30;4.50;;;;;9.60;99002.60;;;;108758;1269;41161;-62
2022/10/18 00:30:04;;;;;;;10.40;4.70;;;;;9.50;98999.40;;;;109027;1269;41602;-63
2022/10/18 00:32:39;;;;;;;9.50;4.80;;;;;9.50;98996.40;;;;109053;1263;41820;-62
2022/10/18 00:35:09;;;;;;;8.50;4.00;;;;;9.40;98999.40;;;;109095;1265;41373;-63
2022/10/18 00:37:41;;;;;;;10.30;4.40;;;;;9.40;98997.80;;;;109064;1266;41142;-62
2022/10/18 00:40:11;;;;;;;8.60;3.90;;;;;9.40;98997.00;;;;109069;1258;41254;-63
2022/10/18 00:42:42;;;;;;;9.60;4.00;;;;;9.30;98990.20;;;;109041;1263;41169;-63
2022/10/18 00:45:24;;;;;;;10.50;3.80;;;;;9.30;98992.20;;;;108967;1271;41700;-62
2022/10/18 00:47:58;;;;;;;9.90;4.30;;;;;9.30;98988.80;;;;108615;1271;41146;-62
2022/10/18 00:50:33;;;;;;;9.10;4.30;;;;;9.30;98993.80;;;;109093;1271;41142;-62
2022/10/18 00:53:09;;;;;;;11.60;4.30;;;;;9.30;98989.80;;;;109080;1269;41140;-62
2022/10/18 00:55:39;;;;;;;11.70;4.60;;;;;9.30;98992.40;;;;109053;1269;41605;-62
2022/10/18 00:58:13;;;;;;;9.10;3.80;;;;;9.30;98983.80;;;;109009;1267;41143;-63
2022/10/18 01:00:42;;;;;;;10.10;4.70;;;;;9.30;98983.60;;;;108949;1271;42406;-63
2022/10/18 01:03:13;;;;;;;10.90;4.40;;;;;9.22;98979.80;;;;108810;1266;41530;-65
2022/10/18 01:05:45;;;;;;;8.60;4.20;;;;;9.20;98978.00;;;;108894;1271;41932;-63
2022/10/18 01:08:42;;;;;;;11.10;5.70;;;;;9.12;98975.40;;;;108814;1271;41678;-64
2022/10/18 01:11:26;;;;;;;14.00;6.40;;;;;9.10;98974.80;;;;108640;1271;41204;-64
2022/10/18 01:14:17;;;;;;;12.10;5.80;;;;;9.00;98973.00;;;;109047;1271;42522;-64
2022/10/18 01:17:05;;;;;;;11.90;5.70;;;;;9.00;98968.40;;;;108988;1269;41273;-64
2022/10/18 01:20:16;;;;;;;11.10;5.30;;;;;8.90;98966.40;;;;109013;1271;41595;-64
2022/10/18 01:22:53;;;;;;;12.20;6.00;;;;;8.90;98963.60;;;;108637;1274;41242;-63
2022/10/18 01:25:36;;;;;;;11.00;5.40;;;;;8.80;98956.20;;;;108863;1271;41566;-64
2022/10/18 01:28:33;;;;;;;11.40;5.50;;;;;8.80;98953.60;;;;108892;1271;41153;-64
2022/10/18 01:31:46;;;;;;;15.10;6.70;;;;;8.80;98955.20;;;;108851;1272;41149;-63
2022/10/18 01:34:17;;;;;;;11.90;6.10;;;;;8.70;98948.40;;;;108626;1274;41194;-63
2022/10/18 01:36:50;;;;;;;12.40;6.20;;;;;8.70;98948.40;;;;108787;1271;41868;-64
2022/10/18 01:39:23;;;;;;;19.80;6.00;;;;;8.66;98946.60;;;;108832;1271;41145;-63
2022/10/18 01:41:54;;;;;;;12.00;5.80;;;;;8.60;98949.00;;;;108720;1271;41192;-63
2022/10/18 01:44:26;;;;;;;11.10;5.80;;;;;8.60;98950.60;;;;109025;1272;40766;-64
2022/10/18 01:46:57;;;;;;;11.30;5.10;;;;;8.60;98943.60;;;;108910;1274;41147;-64
2022/10/18 01:49:29;;;;;;;15.00;6.30;;;;;8.60;98940.80;;;;108940;1271;42404;-64
2022/10/18 01:52:00;;;;;;;;;;;;;8.60;98941.40;;;;108944;1272;41142;-64
2022/10/18 01:54:44;;;;;;;12.40;6.30;;;;;8.50;98940.40;;;;108924;1260;41531;-64
2022/10/18 01:57:35;;;;;;;9.90;5.00;;;;;8.40;98934.00;;;;108971;1264;41152;-64
2022/10/18 02:00:13;;;;;;;11.70;4.70;;;;;8.40;98931.20;;;;108876;1271;41250;-64
2022/10/18 02:02:50;;;;;;;11.20;5.10;;;;;8.40;98927.80;;;;108916;1274;42255;-64
2022/10/18 02:05:44;;;;;;;10.20;4.70;;;;;8.40;98928.20;;;;108975;1260;41707;-63
2022/10/18 02:08:45;;;;;;;10.40;4.90;;;;;8.40;98928.80;;;;109221;1256;41604;-62
2022/10/18 02:11:18;;;;;;;10.10;4.90;;;;;8.40;98925.40;;;;108898;1274;41145;-62
2022/10/18 02:14:09;;;;;;;9.20;4.40;;;;;8.40;98927.40;;;;109006;1259;41237;-64
2022/10/18 02:16:42;;;;;;;10.80;4.20;;;;;8.40;98928.80;;;;108821;1272;41486;-63
2022/10/18 02:19:40;;;;;;;8.50;4.00;;;;;8.40;98928.00;;;;108946;1272;41146;-63
2022/10/18 02:22:13;;;;;;;8.10;3.70;;;;;8.40;98929.00;;;;108821;1273;41133;-63
2022/10/18 02:24:49;;;;;;;9.50;4.00;;;;;8.38;98928.60;;;;108929;1274;41637;-63
2022/10/18 02:27:19;;;;;;;8.90;4.30;;;;;8.40;98926.80;;;;108955;1273;41127;-63
2022/10/18 02:29:50;;;;;;;10.30;4.80;;;;;8.40;98921.40;;;;108951;1261;41678;-62
2022/10/18 02:32:32;;;;;;;9.90;4.90;;;;;8.32;98922.60;;;;108970;1271;41945;-63
2022/10/18 02:35:23;;;;;;;10.00;5.00;;;;;8.30;98917.40;;;;108914;1270;41204;-63
2022/10/18 02:37:54;;;;;;;9.60;4.60;;;;;8.30;98919.60;;;;109008;1273;41457;-62
2022/10/18 02:40:26;;;;;;;9.40;4.40;;;;;8.20;98917.40;;;;108956;1268;41614;-62
2022/10/18 02:42:58;;;;;;;9.70;4.70;;;;;8.20;98924.20;;;;109021;1273;41145;-63
2022/10/18 02:45:27;;;;;;;13.30;4.10;;;;;8.20;98918.80;;;;109036;1273;41234;-62
2022/10/18 02:47:58;;;;;;;8.80;3.70;;;;;8.10;98922.00;;;;108907;1273;41193;-62
2022/10/18 02:50:27;;;;;;;8.40;3.60;;;;;8.10;98919.80;;;;109002;1273;41240;-62
2022/10/18 02:52:57;;;;;;;11.90;3.90;;;;;8.10;98913.80;;;;108965;1268;41671;-63
2022/10/18 02:55:27;;;;;;;8.20;3.90;;;;;8.10;98913.00;;;;109032;1273;41609;-62
2022/10/18 02:58:02;;;;;;;8.50;3.60;;;;;8.10;98911.00;;;;108989;1271;41315;-63
2022/10/18 03:00:31;;;;;;;7.50;3.30;;;;;8.10;98909.80;;;;108997;1272;41126;-62
2022/10/18 03:03:01;;;;;;;9.30;3.70;;;;;8.10;98907.20;;;;108912;1272;41640;-62
2022/10/18 03:05:31;;;;;;;8.40;4.10;;;;;8.00;98903.40;;;;108862;1274;41145;-62
2022/10/18 03:08:00;;;;;;;7.40;3.40;;;;;8.00;98905.40;;;;108798;1273;41142;-63
2022/10/18 03:10:30;;;;;;;7.20;3.10;;;;;8.00;98906.80;;;;108908;1267;41758;-62
2022/10/18 03:12:59;;;;;;;7.40;3.30;;;;;8.00;98907.20;;;;109011;1274;41207;-62
2022/10/18 03:15:30;;;;;;;7.20;3.30;;;;;8.00;98906.20;;;;109007;1273;42259;-62
2022/10/18 03:17:59;;;;;;;6.70;3.10;;;;;8.00;98908.00;;;;108908;1271;41246;-62
2022/10/18 03:20:28;;;;;;;21.70;4.50;;;;;8.00;98910.80;;;;108988;1272;41684;-63
2022/10/18 03:22:58;;;;;;;9.80;4.50;;;;;8.00;98911.60;;;;108885;1274;41142;-63
2022/10/18 03:25:27;;;;;;;10.60;4.90;;;;;8.00;98909.60;;;;109026;1273;41156;-62
2022/10/18 03:27:57;;;;;;;10.10;5.30;;;;;7.90;98901.40;;;;108786;1271;41593;-63
2022/10/18 03:30:27;;;;;;;9.90;4.50;;;;;7.80;98901.60;;;;108896;1275;41165;-62
2022/10/18 03:32:57;;;;;;;12.10;6.60;;;;;7.70;98906.40;;;;108895;1274;41533;-62
2022/10/18 03:35:27;;;;;;;11.00;5.20;;;;;7.70;98905.20;;;;109029;1267;42005;-62
2022/10/18 03:37:58;;;;;;;10.50;5.00;;;;;7.64;98904.40;;;;108951;1273;41152;-62
2022/10/18 03:40:27;;;;;;;19.10;5.00;;;;;7.60;98907.20;;;;108887;1274;41986;-62
2022/10/18 03:42:58;;;;;;;10.30;4.70;;;;;7.60;98908.00;;;;108984;1273;42926;-63
2022/10/18 03:45:28;;;;;;;10.30;4.90;;;;;7.60;98905.40;;;;108974;1270;41668;-63
2022/10/18 03:47:59;;;;;;;17.30;6.80;;;;;7.60;98902.40;;;;108760;1275;41180;-64
2022/10/18 03:50:28;;;;;;;12.00;5.90;;;;;7.52;98902.20;;;;108932;1275;41244;-63
2022/10/18 03:52:58;;;;;;;12.20;5.70;;;;;7.50;98906.60;;;;108874;1271;41141;-62
2022/10/18 03:55:27;;;;;;;9.40;4.50;;;;;7.50;98901.00;;;;108891;1271;41149;-62
2022/10/18 03:57:57;;;;;;;10.10;5.20;;;;;7.48;98898.40;;;;108971;1273;41130;-63
2022/10/18 04:00:26;;;;;;;12.60;5.20;;;;;7.42;98900.60;;;;109018;1273;41159;-63
2022/10/18 04:02:55;;;;;;;9.60;4.60;;;;;7.40;98898.00;;;;109093;1261;41299;-63
2022/10/18 04:05:26;;;;;;;12.70;4.60;;;;;7.40;98894.00;;;;108962;1274;41162;-63
2022/10/18 04:07:55;;;;;;;;;;;;;7.40;98896.00;;;;108909;1274;41943;-62
2022/10/18 04:10:24;;;;;;;12.80;4.10;;;;;7.40;98897.40;;;;108886;1273;274977;-62
2022/10/18 04:12:53;;;;;;;9.90;4.10;;;;;7.40;98890.80;;;;108729;1271;41347;-62
2022/10/18 04:15:23;;;;;;;15.80;4.10;;;;;7.40;98889.20;;;;108912;1273;41217;-63
2022/10/18 04:17:51;;;;;;;11.20;4.30;;;;;7.46;98893.80;;;;108992;1272;41178;-63
2022/10/18 04:20:20;;;;;;;13.80;5.20;;;;;7.40;98894.60;;;;109005;1272;41416;-62
2022/10/18 04:22:50;;;;;;;15.90;5.10;;;;;7.40;98894.20;;;;108974;1273;41936;-63
2022/10/18 04:25:19;;;;;;;22.50;6.50;;;;;7.30;98893.20;;;;108647;1272;41147;-63
2022/10/18 04:27:50;;;;;;;11.80;6.00;;;;;7.20;98893.60;;;;108808;1274;41151;-63
2022/10/18 04:30:19;;;;;;;16.40;6.30;;;;;7.20;98893.40;;;;108697;1273;41142;-63
2022/10/18 04:32:48;;;;;;;13.40;5.90;;;;;7.00;98895.80;;;;108680;1274;41155;-63
2022/10/18 04:35:18;;;;;;;14.10;5.90;;;;;6.90;98893.80;;;;108649;1272;42051;-63
2022/10/18 04:37:47;;;;;;;9.90;5.00;;;;;6.90;98893.60;;;;108684;1273;41170;-63
2022/10/18 04:40:16;;;;;;;11.80;4.80;;;;;6.80;98892.20;;;;108756;1274;41689;-63
2022/10/18 04:42:46;;;;;;;10.10;4.90;;;;;6.80;98886.20;;;;108919;1272;42498;-63
2022/10/18 04:45:15;;;;;;;10.30;4.70;;;;;6.78;98885.40;;;;108962;1272;41544;-62
2022/10/18 04:47:44;;;;;;;9.80;4.70;;;;;6.74;98882.00;;;;108981;1269;41143;-62
2022/10/18 04:50:14;;;;;;;9.00;4.60;;;;;6.72;98879.00;;;;108973;1269;41602;-64
2022/10/18 04:52:43;;;;;;;14.60;7.40;;;;;6.72;98881.00;;;;108853;1271;41138;-62
2022/10/18 04:55:12;;;;;;;14.00;6.30;;;;;6.70;98883.20;;;;108902;1269;41163;-63
2022/10/18 04:57:42;;;;;;;12.90;6.30;;;;;6.70;98884.80;;;;108822;1273;41706;-63
2022/10/18 05:00:12;;;;;;;13.00;6.60;;;;;6.70;98893.60;;;;108966;1269;41195;-63
2022/10/18 05:02:41;;;;;;;14.70;7.10;;;;;6.64;98893.40;;;;108834;1272;41334;-62
2022/10/18 05:05:10;;;;;;;12.50;6.10;;;;;6.60;98893.20;;;;108962;1269;41471;-63
2022/10/18 05:07:41;;;;;;;11.10;5.70;;;;;6.60;98895.60;;;;108974;1269;41147;-63
2022/10/18 05:10:10;;;;;;;13.80;5.50;;;;;6.70;98896.20;;;;108902;1269;41231;-63
2022/10/18 05:12:38;;;;;;;12.90;5.80;;;;;6.70;98895.60;;;;108888;1269;41686;-63
2022/10/18 05:15:08;;;;;;;13.40;5.80;;;;;6.70;98891.60;;;;108839;1269;41612;-63
2022/10/18 05:17:36;;;;;;;12.80;5.70;;;;;6.74;98892.40;;;;109008;1269;42587;-62
2022/10/18 05:20:05;;;;;;;10.90;5.00;;;;;6.80;98893.60;;;;109006;1269;41231;-63
2022/10/18 05:22:34;;;;;;;16.70;5.90;;;;;6.80;98895.80;;;;108978;1269;42360;-64
2022/10/18 05:25:04;;;;;;;13.70;6.00;;;;;6.90;98892.40;;;;108919;1271;42049;-63
2022/10/18 05:27:33;;;;;;;11.60;6.30;;;;;6.90;98892.00;;;;108942;1271;41259;-63
2022/10/18 05:30:03;;;;;;;11.00;5.50;;;;;6.90;98894.20;;;;108965;1267;41936;-62
2022/10/18 05:32:33;;;;;;;13.20;5.40;;;;;6.98;98893.00;;;;108953;1269;41159;-63
2022/10/18 05:35:02;;;;;;;10.20;5.10;;;;;7.00;98890.80;;;;108895;1271;41174;-62
2022/10/18 05:37:30;;;;;;;13.80;5.90;;;;;7.06;98891.60;;;;108917;1269;41239;-63
2022/10/18 05:39:59;;;;;;;12.20;5.00;;;;;7.10;98895.80;;;;108984;1263;41380;-62
2022/10/18 05:42:29;;;;;;;11.80;5.70;;;;;7.20;98892.40;;;;109057;1271;41612;-63
2022/10/18 05:44:59;;;;;;;11.40;5.60;;;;;7.30;98889.80;;;;108988;1269;41154;-63
2022/10/18 05:47:28;;;;;;;16.30;7.70;;;;;7.40;98887.60;;;;108814;1271;41244;-63
2022/10/18 05:49:57;;;;;;;15.10;9.00;;;;;7.44;98889.60;;;;108900;1271;41311;-63
2022/10/18 05:52:26;;;;;;;13.60;8.00;;;;;7.50;98897.20;;;;109001;1263;41150;-62
2022/10/18 05:54:54;;;;;;;13.40;7.70;;;;;7.50;98900.00;;;;108842;1271;41177;-63
2022/10/18 05:57:23;;;;;;;13.90;7.00;;;;;7.60;98898.60;;;;108944;1271;41140;-63
2022/10/18 05:59:51;;;;;;;20.00;10.60;;;;;7.70;98895.00;;;;109046;1269;41686;-63
2022/10/18 06:02:21;;;;;;;17.70;10.20;;;;;7.80;98895.80;;;;108987;1269;41633;-62
2022/10/18 06:04:50;;;;;;;19.70;11.00;;;;;7.82;98897.60;;;;108927;1271;41373;-62
2022/10/18 06:07:18;;;;;;;19.00;9.90;;;;;7.90;98900.40;;;;109086;1264;42538;-63
2022/10/18 06:09:47;;;;;;;22.50;9.10;;;;;7.90;98898.20;;;;109060;1269;41243;-63
2022/10/18 06:12:16;;;;;;;15.60;8.10;;;;;7.94;98898.60;;;;109010;1269;42350;-62
2022/10/18 06:14:46;;;;;;;14.20;7.70;;;;;8.08;98900.60;;;;109061;1266;41693;-63
2022/10/18 06:17:14;;;;;;;14.10;7.30;;;;;8.24;98899.20;;;;109158;1269;42393;-62
2022/10/18 06:19:44;;;;;;;16.60;8.10;;;;;8.44;98899.80;;;;108999;1269;42185;-62
2022/10/18 06:22:12;;;;;;;15.80;8.50;;;;;8.60;98903.40;;;;109063;1269;41146;-62
2022/10/18 06:24:41;;;;;;;16.10;8.50;;;;;8.80;98895.00;;;;108990;1266;41186;-63
2022/10/18 06:27:10;;;;;;;14.00;7.00;;;;;8.90;98895.80;;;;108942;1271;41198;-63
2022/10/18 06:29:39;;;;;;;15.90;7.40;;;;;9.10;98891.80;;;;109072;1265;42236;-63
2022/10/18 06:32:08;;;;;;;12.10;6.70;;;;;9.28;98889.20;;;;109014;1264;41153;-63
2022/10/18 06:34:37;;;;;;;16.00;8.30;;;;;9.48;98888.00;;;;108997;1256;41235;-63
2022/10/18 06:37:06;;;;;;;11.40;6.00;;;;;9.60;98889.60;;;;108980;1269;41931;-63
2022/10/18 06:39:35;;;;;;;14.30;7.40;;;;;9.80;98884.00;;;;108997;1266;42564;-64
2022/10/18 06:42:04;;;;;;;12.90;7.10;;;;;9.90;98883.60;;;;109065;1261;41688;-64
2022/10/18 06:44:34;;;;;;;15.10;7.60;;;;;10.00;98881.80;;;;109052;1264;41141;-63
2022/10/18 06:47:03;;;;;;;11.50;6.70;;;;;10.08;98881.00;;;;108959;1269;41249;-63
2022/10/18 06:49:32;;;;;;;11.50;6.30;;;;;10.20;98880.40;;;;109006;1269;41148;-63
2022/10/18 06:52:01;;;;;;;13.90;7.40;;;;;10.40;98874.80;;;;108990;1263;41253;-64
2022/10/18 06:54:30;;;;;;;16.80;7.80;;;;;10.62;98869.40;;;;109038;1269;41603;-63
2022/10/18 06:57:00;;;;;;;14.50;8.00;;;;;10.78;98870.00;;;;109077;1269;41148;-62
2022/10/18 06:59:29;;;;;;;12.70;7.50;;;;;10.90;98870.40;;;;108933;1271;41418;-62
2022/10/18 07:01:58;;;;;;;13.40;6.50;;;;;11.16;98864.00;;;;108982;1269;41617;-63
2022/10/18 07:04:29;;;;;;;12.30;5.80;;;;;11.40;98865.00;;;;108887;1266;41217;-63
2022/10/18 07:06:57;;;;;;;12.80;7.10;;;;;11.64;98866.20;;;;108981;1266;41273;-63
2022/10/18 07:09:26;;;;;;;14.30;6.40;;;;;11.80;98861.60;;;;108961;1265;41158;-63
2022/10/18 07:23:56;;;;;;;9.50;5.00;;;;;13.18;98849.40;;;;106480;1298;581731;-62
2022/10/18 07:26:29;;;;;;;10.20;5.10;;;;;13.50;98849.80;;;;107662;1279;360058;-64
2022/10/18 07:29:10;;;;;;;10.60;5.10;;;;;13.70;98841.80;;;;108172;1283;41363;-65
2022/10/18 07:31:39;;;;;;;10.90;5.20;;;;;13.90;98841.80;;;;108075;1284;40842;-65
2022/10/18 07:34:11;;;;;;;11.10;4.90;;;;;14.00;98838.40;;;;108261;1269;41158;-64
2022/10/18 07:36:40;;;;;;;11.50;5.20;;;;;14.20;98833.00;;;;108086;1284;42360;-64
2022/10/18 07:39:09;;;;;;;9.30;4.90;;;;;14.36;98834.60;;;;108185;1281;41508;-64
2022/10/18 07:41:38;;;;;;;11.90;5.30;;;;;14.50;98834.00;;;;108221;1284;41151;-64
2022/10/18 07:44:07;;;;;;;9.80;4.70;;;;;14.60;98828.40;;;;108023;1284;41259;-64
2022/10/18 07:46:36;;;;;;;8.80;4.50;;;;;14.70;98827.00;;;;107858;1284;41246;-65
2022/10/18 07:49:05;;;;;;;10.00;4.70;;;;;14.90;98824.00;;;;108033;1284;42284;-65
2022/10/18 07:51:35;;;;;;;11.10;5.10;;;;;15.14;98827.60;;;;107988;1284;42520;-64
2022/10/18 07:54:04;;;;;;;11.50;5.00;;;;;15.30;98820.40;;;;108118;1284;41165;-65
2022/10/18 07:56:33;;;;;;;9.20;4.40;;;;;15.48;98821.80;;;;108070;1283;42442;-65
2022/10/18 07:59:02;;;;;;;9.60;4.60;;;;;15.60;98818.00;;;;108265;1283;40750;-65
2022/10/18 08:01:31;;;;;;;8.90;4.10;;;;;15.80;98813.20;;;;108020;1283;41179;-64
2022/10/18 08:04:01;;;;;;;9.20;4.40;;;;;16.00;98814.60;;;;108189;1282;41641;-64
2022/10/18 08:06:34;;;;;;;9.70;4.70;;;;;16.16;98815.40;;;;108168;1284;41254;-63
2022/10/18 08:09:03;;;;;;;9.10;4.40;;;;;16.20;98813.20;;;;108184;1284;41940;-63
2022/10/18 08:11:32;;;;;;;11.90;5.20;;;;;16.40;98807.20;;;;108092;1284;41189;-63
2022/10/18 08:14:02;;;;;;;10.10;4.90;;;;;16.50;98809.80;;;;108293;1269;41162;-63
2022/10/18 08:16:30;;;;;;;11.30;4.80;;;;;16.86;98811.20;;;;108108;1283;41243;-63
2022/10/18 08:19:04;;;;;;;11.70;5.70;;;;;17.24;98802.80;;;;108055;1284;41622;-63
2022/10/18 08:21:33;;;;;;;10.60;5.20;;;;;17.64;98800.40;;;;108127;1279;41239;-63
2022/10/18 08:24:01;;;;;;;10.60;4.90;;;;;17.92;98799.60;;;;108107;1283;41153;-63
2022/10/18 08:26:33;;;;;;;10.80;4.90;;;;;18.20;98796.80;;;;108151;1283;41804;-63
2022/10/18 08:29:02;;;;;;;10.30;4.70;;;;;18.68;98796.60;;;;108028;1284;41166;-63
2022/10/18 08:31:49;;;;;;;8.50;3.70;;;;;19.20;98790.20;;;;108086;1284;41486;-63
2022/10/18 08:34:18;;;;;;;8.20;3.70;;;;;19.80;98781.80;;;;108072;1284;41170;-63
2022/10/18 08:36:47;;;;;;;7.80;3.60;;;;;20.64;98782.20;;;;107987;1282;41979;-63
2022/10/18 08:39:16;;;;;;;9.80;4.00;;;;;21.50;98776.00;;;;108043;1282;41902;-63
2022/10/18 08:42:07;;;;;;;8.40;3.90;;;;;22.20;98774.40;;;;107984;1284;42050;-62
2022/10/18 08:44:44;;;;;;;10.20;3.50;;;;;22.70;98772.60;;;;108049;1278;41966;-63
2022/10/18 08:47:17;;;;;;;11.90;4.30;;;;;23.26;98765.20;;;;107913;1284;41150;-63
2022/10/18 08:49:52;;;;;;;10.50;3.60;;;;;23.28;98753.60;;;;107943;1269;41597;-64
2022/10/18 08:52:40;;;;;;;9.20;3.70;;;;;23.66;98754.60;;;;108081;1284;41438;-63
2022/10/18 08:55:51;;;;;;;8.50;3.80;;;;;24.24;98748.60;;;;108097;1282;42004;-62
2022/10/18 08:58:25;;;;;;;9.90;4.50;;;;;24.60;98742.60;;;;107911;1284;41629;-63
2022/10/18 09:01:30;;;;;;;9.50;4.30;;;;;24.42;98739.40;;;;108120;1278;41164;-63
2022/10/18 09:04:17;;;;;;;8.60;3.60;;;;;25.00;98736.80;;;;108125;1283;41249;-64
2022/10/18 09:07:13;;;;;;;8.30;3.80;;;;;25.52;98733.60;;;;108164;1283;41643;-63
2022/10/18 09:10:09;;;;;;;9.30;4.00;;;;;26.22;98728.60;;;;108228;1282;41252;-63
2022/10/18 09:12:49;;;;;;;7.80;3.40;;;;;26.96;98718.40;;;;108187;1283;41310;-64
2022/10/18 09:15:39;;;;;;;9.40;3.60;;;;;27.70;98717.60;;;;107955;1284;41156;-63
2022/10/18 09:18:13;;;;;;;;;;;;;28.50;98713.60;;;;108024;1282;41174;-63
2022/10/18 09:20:50;;;;;;;8.70;3.80;;;;;28.60;98707.40;;;;108106;1284;41254;-63
2022/10/18 09:23:22;;;;;;;10.50;4.30;;;;;28.80;98700.20;;;;108186;1284;41614;-63
2022/10/18 09:26:20;;;;;;;9.30;3.40;;;;;28.86;98694.00;;;;108175;1284;41633;-63
2022/10/18 09:28:55;;;;;;;7.90;3.30;;;;;29.46;98697.40;;;;108051;1284;41162;-64
2022/10/18 09:31:48;;;;;;;7.70;3.40;;;;;30.10;98688.40;;;;108136;1284;41953;-64
2022/10/18 09:34:23;;;;;;;10.00;3.60;;;;;30.00;98682.60;;;;108178;1281;41162;-67
2022/10/18 09:36:53;;;;;;;9.70;4.10;;;;;29.90;98676.80;;;;107967;1284;41709;-64
2022/10/18 09:39:25;;;;;;;10.20;3.70;;;;;29.96;98672.40;;;;108054;1284;41153;-64
2022/10/18 09:42:25;;;;;;;7.70;3.20;;;;;30.10;98674.80;;;;107924;1284;42084;-65
2022/10/18 09:45:03;;;;;;;7.10;3.20;;;;;30.60;98673.80;;;;107894;1284;41171;-64
2022/10/18 09:47:39;;;;;;;8.30;3.10;;;;;31.14;98675.40;;;;108206;1284;41239;-64
2022/10/18 09:50:24;;;;;;;10.10;3.90;;;;;31.76;98665.60;;;;108208;1277;41261;-64
2022/10/18 09:53:19;;;;;;;7.40;3.50;;;;;32.38;98661.60;;;;108333;1272;41181;-64
2022/10/18 09:56:20;;;;;;;9.10;3.70;;;;;32.68;98661.40;;;;108118;1280;42234;-64
2022/10/18 09:58:50;;;;;;;10.00;3.90;;;;;33.20;98657.00;;;;108229;1280;41694;-64
2022/10/18 10:01:21;;;;;;;8.50;3.60;;;;;33.64;98657.80;;;;108303;1280;41155;-64
2022/10/18 10:03:51;;;;;;;8.90;3.60;;;;;33.72;98654.20;;;;108291;1279;41252;-64
2022/10/18 10:06:28;;;;;;;8.40;3.70;;;;;33.30;98648.60;;;;108303;1279;41292;-64
2022/10/18 10:09:13;;;;;;;8.10;3.90;;;;;33.38;98649.80;;;;108288;1280;41194;-65
2022/10/18 10:11:50;;;;;;;7.70;3.40;;;;;33.18;98643.20;;;;108267;1280;41213;-65
2022/10/18 10:14:25;;;;;;;9.40;3.40;;;;;32.68;98644.80;;;;108274;1281;41152;-65
2022/10/18 10:17:01;;;;;;;10.00;3.60;;;;;32.46;98640.40;;;;108283;1280;41493;-64
2022/10/18 10:19:39;;;;;;;8.50;3.40;;;;;32.82;98639.80;;;;108244;1280;41155;-65
2022/10/18 10:22:11;;;;;;;8.60;3.50;;;;;33.30;98632.40;;;;108281;1280;41179;-65
2022/10/18 10:24:46;;;;;;;8.60;3.40;;;;;33.40;98630.20;;;;108277;1281;42030;-64
2022/10/18 10:27:29;;;;;;;9.20;3.40;;;;;33.84;98623.20;;;;108296;1283;41906;-64
2022/10/18 10:30:01;;;;;;;7.90;3.20;;;;;34.22;98614.40;;;;108270;1281;41148;-64
2022/10/18 10:32:46;;;;;;;7.50;3.20;;;;;33.96;98608.80;;;;108263;1281;41503;-64
2022/10/18 10:35:30;;;;;;;8.30;3.10;;;;;34.44;98606.00;;;;108285;1281;42046;-65
2022/10/18 10:38:23;;;;;;;7.90;3.10;;;;;35.02;98604.20;;;;108281;1279;41227;-64
2022/10/18 10:40:52;;;;;;;7.90;3.10;;;;;35.64;98597.40;;;;108260;1281;41160;-65
2022/10/18 10:43:26;;;;;;;7.00;3.00;;;;;36.00;98591.60;;;;108276;1281;42023;-64
2022/10/18 10:46:21;;;;;;;7.20;2.60;;;;;36.44;98586.40;;;;108264;1279;41263;-65
2022/10/18 10:48:53;;;;;;;7.40;3.00;;;;;37.10;98585.00;;;;108270;1271;41599;-64
2022/10/18 10:51:42;;;;;;;8.10;3.10;;;;;37.60;98576.40;;;;108238;1281;41172;-63
2022/10/18 10:54:16;;;;;;;8.60;3.00;;;;;37.80;98576.80;;;;108270;1281;41383;-64
2022/10/18 10:56:58;;;;;;;10.10;3.60;;;;;38.20;98566.60;;;;108331;1283;42176;-65
2022/10/18 10:59:30;;;;;;;11.40;4.40;;;;;38.72;98564.00;;;;108251;1281;41408;-65
2022/10/18 11:02:14;;;;;;;10.10;4.40;;;;;39.06;98558.20;;;;108300;1283;41158;-64
2022/10/18 11:04:49;;;;;;;11.40;3.90;;;;;39.20;98548.60;;;;108270;1283;41151;-65
2022/10/18 11:07:39;;;;;;;11.30;4.90;;;;;39.46;98546.00;;;;108282;1279;41209;-64
2022/10/18 11:10:11;;;;;;;10.30;4.80;;;;;39.38;98540.60;;;;108275;1281;41458;-65
2022/10/18 11:13:06;;;;;;;9.80;4.00;;;;;39.18;98543.00;;;;108248;1281;41235;-64
2022/10/18 11:15:39;;;;;;;11.70;4.60;;;;;39.14;98536.00;;;;108265;1284;41147;-64
2022/10/18 11:18:16;;;;;;;10.00;4.50;;;;;39.30;98529.60;;;;108316;1282;41246;-64
2022/10/18 11:20:55;;;;;;;10.70;4.60;;;;;39.60;98532.00;;;;108270;1283;41159;-64
2022/10/18 11:23:31;;;;;;;10.70;4.40;;;;;38.24;98524.60;;;;108305;1283;41159;-64
2022/10/18 11:26:12;;;;;;;12.80;4.90;;;;;38.68;98524.00;;;;108299;1281;41177;-64
2022/10/18 11:29:05;;;;;;;12.10;4.30;;;;;38.92;98519.80;;;;108263;1283;41155;-64
2022/10/18 11:31:37;;;;;;;9.50;4.20;;;;;38.70;98515.20;;;;108252;1280;41241;-63
2022/10/18 11:34:41;;;;;;;9.00;4.00;;;;;38.90;98510.20;;;;108271;1283;41268;-64
2022/10/18 11:37:23;;;;;;;8.40;3.70;;;;;39.46;98502.00;;;;108362;1283;41137;-64
2022/10/18 11:40:16;;;;;;;9.10;4.30;;;;;39.80;98498.60;;;;108260;1281;41621;-63
2022/10/18 11:43:17;;;;;;;9.90;3.90;;;;;39.80;98491.20;;;;108226;1283;41169;-64
2022/10/18 11:45:56;;;;;;;10.70;4.10;;;;;39.90;98489.60;;;;108205;1283;41622;-64
2022/10/18 11:48:37;;;;;;;9.60;3.70;;;;;39.98;98489.00;;;;108305;1283;41167;-64
2022/10/18 11:51:21;;;;;;;9.50;3.50;;;;;40.04;98478.00;;;;108290;1283;41240;-64
2022/10/18 11:54:37;;;;;;;10.20;4.00;;;;;40.40;98478.80;;;;108238;1268;41950;-64
2022/10/18 11:57:42;;;;;;;9.00;3.70;;;;;40.18;98472.40;;;;108256;1281;41258;-64
2022/10/18 12:00:18;;;;;;;12.60;3.80;;;;;40.26;98467.40;;;;108268;1281;41158;-64
2022/10/18 12:02:58;;;;;;;9.80;3.80;;;;;39.70;98462.80;;;;108284;1279;41780;-64
2022/10/18 12:05:28;;;;;;;7.60;3.50;;;;;39.48;98461.40;;;;108273;1277;41155;-64
2022/10/18 12:08:16;;;;;;;11.70;3.80;;;;;39.36;98455.80;;;;108260;1281;41161;-64
2022/10/18 12:10:51;;;;;;;10.40;3.80;;;;;39.34;98451.80;;;;108292;1281;41154;-63
2022/10/18 12:13:34;;;;;;;10.30;3.40;;;;;38.66;98450.00;;;;108290;1280;41184;-64
2022/10/18 12:16:04;;;;;;;10.40;3.90;;;;;38.68;98446.80;;;;108289;1283;41620;-64
2022/10/18 12:18:35;;;;;;;8.50;3.30;;;;;38.90;98440.00;;;;108297;1283;41204;-64
2022/10/18 12:21:04;;;;;;;8.50;3.60;;;;;39.10;98442.20;;;;108268;1278;41407;-63
2022/10/18 12:23:36;;;;;;;9.90;3.20;;;;;39.00;98443.80;;;;108279;1276;42010;-64
2022/10/18 12:26:06;;;;;;;8.30;3.10;;;;;38.70;98443.60;;;;108250;1278;41158;-64
2022/10/18 12:28:56;;;;;;;10.00;3.80;;;;;38.86;98443.20;;;;108295;1283;41608;-64
2022/10/18 12:31:28;;;;;;;8.80;3.50;;;;;39.38;98439.20;;;;108316;1279;41183;-64
2022/10/18 12:34:00;;;;;;;8.50;3.40;;;;;39.86;98434.40;;;;108300;1278;41178;-64
2022/10/18 12:36:43;;;;;;;8.80;3.20;;;;;40.46;98430.60;;;;108297;1278;41143;-64
2022/10/18 12:39:46;;;;;;;10.00;3.20;;;;;41.04;98427.60;;;;108291;1281;41182;-65
2022/10/18 12:42:44;;;;;;;6.80;3.10;;;;;41.30;98423.80;;;;108267;1279;42222;-63
2022/10/18 12:45:39;;;;;;;9.10;3.30;;;;;41.42;98416.20;;;;108258;1283;42380;-64
2022/10/18 12:48:29;;;;;;;10.90;3.20;;;;;41.36;98415.60;;;;108077;1278;41164;-65
2022/10/18 12:51:13;;;;;;;16.20;3.90;;;;;41.30;98417.00;;;;108241;1276;41186;-63
2022/10/18 12:53:44;;;;;;;8.30;3.00;;;;;41.40;98416.60;;;;108238;1279;41193;-63
2022/10/18 12:56:28;;;;;;;6.80;2.90;;;;;41.30;98413.80;;;;108293;1278;42071;-63
2022/10/18 12:59:18;;;;;;;8.00;3.00;;;;;41.16;98410.60;;;;108291;1278;41154;-63
2022/10/18 13:01:49;;;;;;;;;;;;;40.82;98406.80;;;;108214;1279;42370;-63